createdAt,value
2023-01-13T00:00:33.253Z,8.17
2023-01-13T00:01:33.190Z,8.17
2023-01-13T00:02:33.227Z,8.17
2023-01-13T00:03:33.155Z,8.18
2023-01-13T00:04:33.162Z,8.15
2023-01-13T00:05:33.128Z,8.17
2023-01-13T00:06:33.143Z,8.14
2023-01-13T00:07:33.111Z,8.14
2023-01-13T00:08:33.102Z,8.14
2023-01-13T00:09:33.090Z,8.12
2023-01-13T00:10:33.082Z,8.12
2023-01-13T00:11:33.084Z,8.11
2023-01-13T00:12:33.056Z,8.12
2023-01-13T00:13:33.048Z,8.12
2023-01-13T00:14:33.039Z,8.11
2023-01-13T00:15:33.027Z,8.11
2023-01-13T00:16:33.034Z,8.14
2023-01-13T00:17:33.003Z,8.14
2023-01-13T00:18:32.995Z,8.10
2023-01-13T00:19:32.989Z,8.10
2023-01-13T00:20:32.970Z,8.08
2023-01-13T00:21:32.973Z,8.08
2023-01-13T00:22:32.954Z,8.08
2023-01-13T00:23:32.943Z,8.08
2023-01-13T00:24:32.935Z,8.08
2023-01-13T00:25:32.922Z,8.08
2023-01-13T00:26:32.934Z,8.08
2023-01-13T00:27:32.907Z,8.10
2023-01-13T00:28:32.892Z,8.10
2023-01-13T00:29:32.881Z,8.10
2023-01-13T00:30:32.874Z,8.11
2023-01-13T00:31:32.925Z,8.12
2023-01-13T00:32:32.857Z,8.10
2023-01-13T00:33:32.836Z,8.08
2023-01-13T00:34:32.822Z,8.11
2023-01-13T00:35:32.809Z,8.11
2023-01-13T00:36:32.813Z,8.10
2023-01-13T00:37:32.802Z,8.11
2023-01-13T00:38:32.792Z,8.11
2023-01-13T00:39:32.784Z,8.12
2023-01-13T00:40:32.775Z,8.14
2023-01-13T00:41:32.772Z,8.11
2023-01-13T00:42:32.744Z,8.11
2023-01-13T00:43:32.743Z,8.10
2023-01-13T00:44:32.734Z,8.08
2023-01-13T00:45:32.718Z,8.08
2023-01-13T00:46:32.757Z,8.10
2023-01-13T00:47:32.688Z,8.10
2023-01-13T00:48:32.688Z,8.07
2023-01-13T00:49:32.669Z,8.10
2023-01-13T00:50:32.660Z,8.04
2023-01-13T00:51:32.654Z,8.07
2023-01-13T00:52:32.638Z,8.07
2023-01-13T00:53:32.624Z,8.04
2023-01-13T00:54:32.637Z,8.04
2023-01-13T00:55:32.613Z,8.07
2023-01-13T00:56:40.245Z,8.10
2023-01-13T00:57:32.614Z,8.12
2023-01-13T00:58:32.578Z,8.14
2023-01-13T00:59:32.566Z,8.10
2023-01-13T01:00:32.664Z,8.07
2023-01-13T01:01:33.068Z,8.07
2023-01-13T01:02:32.591Z,8.07
2023-01-13T01:03:32.554Z,8.07
2023-01-13T01:04:32.520Z,8.04
2023-01-13T01:05:32.508Z,8.03
2023-01-13T01:06:32.508Z,8.07
2023-01-13T01:07:32.484Z,8.07
2023-01-13T01:08:32.470Z,8.04
2023-01-13T01:09:32.476Z,8.03
2023-01-13T01:10:32.504Z,8.00
2023-01-13T01:11:32.479Z,8.02
2023-01-13T01:12:32.457Z,8.02
2023-01-13T01:13:32.431Z,8.00
2023-01-13T01:14:32.414Z,7.99
2023-01-13T01:15:32.409Z,7.99
2023-01-13T01:16:32.629Z,7.94
2023-01-13T01:17:32.390Z,7.93
2023-01-13T01:18:32.370Z,7.92
2023-01-13T01:19:32.379Z,7.89
2023-01-13T01:20:32.350Z,7.89
2023-01-13T01:21:32.362Z,7.87
2023-01-13T01:22:32.325Z,7.84
2023-01-13T01:23:32.321Z,7.84
2023-01-13T01:24:32.327Z,7.78
2023-01-13T01:25:32.298Z,7.77
2023-01-13T01:26:32.302Z,7.74
2023-01-13T01:27:32.282Z,7.74
2023-01-13T01:28:32.274Z,7.74
2023-01-13T01:29:32.270Z,7.69
2023-01-13T01:30:32.258Z,7.66
2023-01-13T01:31:32.343Z,7.60
2023-01-13T01:32:32.217Z,7.60
2023-01-13T01:33:32.207Z,7.60
2023-01-13T01:34:32.205Z,7.66
2023-01-13T01:35:32.194Z,7.69
2023-01-13T01:36:32.223Z,7.72
2023-01-13T01:37:32.168Z,7.72
2023-01-13T01:38:32.159Z,7.71
2023-01-13T01:39:32.143Z,7.72
2023-01-13T01:40:32.142Z,7.71
2023-01-13T01:41:32.139Z,7.71
2023-01-13T01:42:32.114Z,7.69
2023-01-13T01:43:32.103Z,7.71
2023-01-13T01:44:32.098Z,7.69
2023-01-13T01:45:32.081Z,7.71
2023-01-13T01:46:32.121Z,7.69
2023-01-13T01:47:32.057Z,7.67
2023-01-13T01:48:32.049Z,7.67
2023-01-13T01:49:32.038Z,7.67
2023-01-13T01:50:32.033Z,7.63
2023-01-13T01:51:32.039Z,7.62
2023-01-13T01:52:32.018Z,7.62
2023-01-13T01:53:32.008Z,7.62
2023-01-13T01:54:31.985Z,7.62
2023-01-13T01:55:31.973Z,7.60
2023-01-13T01:56:31.979Z,7.60
2023-01-13T01:57:31.957Z,7.62
2023-01-13T01:58:31.948Z,7.62
2023-01-13T01:59:31.933Z,7.60
2023-01-13T02:00:31.949Z,7.60
2023-01-13T02:01:32.018Z,7.62
2023-01-13T02:02:32.074Z,7.63
2023-01-13T02:03:31.888Z,7.63
2023-01-13T02:04:31.876Z,7.63
2023-01-13T02:05:31.863Z,7.69
2023-01-13T02:06:31.871Z,7.67
2023-01-13T02:07:31.856Z,7.66
2023-01-13T02:08:31.844Z,7.69
2023-01-13T02:09:31.828Z,7.67
2023-01-13T02:10:31.813Z,7.69
2023-01-13T02:11:31.817Z,7.71
2023-01-13T02:12:31.831Z,7.72
2023-01-13T02:13:31.790Z,7.72
2023-01-13T02:14:31.792Z,7.74
2023-01-13T02:15:31.778Z,7.72
2023-01-13T02:16:31.955Z,7.72
2023-01-13T02:17:31.745Z,7.69
2023-01-13T02:18:31.726Z,7.67
2023-01-13T02:19:31.714Z,7.67
2023-01-13T02:20:31.708Z,7.66
2023-01-13T02:21:31.707Z,7.62
2023-01-13T02:22:31.705Z,7.56
2023-01-13T02:23:31.679Z,7.50
2023-01-13T02:24:31.666Z,7.47
2023-01-13T02:25:31.656Z,7.40
2023-01-13T02:26:31.657Z,7.40
2023-01-13T02:27:31.638Z,7.35
2023-01-13T02:28:31.619Z,7.38
2023-01-13T02:29:31.607Z,7.37
2023-01-13T02:30:31.604Z,7.34
2023-01-13T02:31:31.629Z,7.34
2023-01-13T02:32:31.584Z,7.37
2023-01-13T02:33:31.568Z,7.34
2023-01-13T02:34:31.551Z,7.35
2023-01-13T02:35:31.550Z,7.31
2023-01-13T02:36:31.546Z,7.32
2023-01-13T02:37:31.523Z,7.31
2023-01-13T02:38:31.536Z,7.31
2023-01-13T02:39:31.506Z,7.31
2023-01-13T02:40:31.519Z,7.40
2023-01-13T02:41:31.483Z,7.41
2023-01-13T02:42:31.489Z,7.42
2023-01-13T02:43:31.457Z,7.40
2023-01-13T02:44:31.446Z,7.42
2023-01-13T02:45:31.461Z,7.41
2023-01-13T02:46:31.429Z,7.40
2023-01-13T02:47:31.427Z,7.35
2023-01-13T02:48:31.409Z,7.32
2023-01-13T02:49:31.391Z,7.29
2023-01-13T02:50:31.375Z,7.27
2023-01-13T02:51:31.365Z,7.26
2023-01-13T02:52:31.374Z,7.23
2023-01-13T02:53:31.345Z,7.26
2023-01-13T02:54:31.339Z,7.26
2023-01-13T02:55:31.339Z,7.24
2023-01-13T02:56:31.319Z,7.26
2023-01-13T02:57:31.322Z,7.27
2023-01-13T02:58:31.294Z,7.27
2023-01-13T02:59:31.237Z,7.29
2023-01-13T03:00:31.178Z,7.34
2023-01-13T03:01:31.231Z,7.37
2023-01-13T03:02:31.226Z,7.35
2023-01-13T03:03:31.133Z,7.37
2023-01-13T03:04:31.113Z,7.32
2023-01-13T03:05:31.112Z,7.26
2023-01-13T03:06:31.097Z,7.23
2023-01-13T03:07:31.105Z,7.23
2023-01-13T03:08:31.073Z,7.17
2023-01-13T03:09:31.068Z,7.20
2023-01-13T03:10:31.052Z,7.17
2023-01-13T03:11:31.049Z,7.19
2023-01-13T03:12:31.047Z,7.19
2023-01-13T03:13:31.026Z,7.16
2023-01-13T03:14:31.008Z,7.15
2023-01-13T03:15:31.005Z,7.15
2023-01-13T03:16:31.037Z,7.13
2023-01-13T03:17:30.997Z,7.12
2023-01-13T03:18:30.964Z,7.07
2023-01-13T03:19:30.957Z,7.05
2023-01-13T03:20:30.953Z,7.02
2023-01-13T03:21:30.939Z,6.97
2023-01-13T03:22:30.934Z,6.90
2023-01-13T03:23:30.914Z,6.86
2023-01-13T03:24:30.903Z,6.83
2023-01-13T03:25:36.907Z,6.84
2023-01-13T03:26:30.887Z,6.84
2023-01-13T03:27:30.913Z,6.81
2023-01-13T03:28:30.858Z,6.81
2023-01-13T03:29:30.863Z,6.77
2023-01-13T03:30:30.908Z,6.71
2023-01-13T03:31:30.830Z,6.69
2023-01-13T03:32:30.830Z,6.63
2023-01-13T03:33:30.813Z,6.69
2023-01-13T03:34:31.268Z,6.73
2023-01-13T03:35:30.813Z,6.72
2023-01-13T03:36:30.776Z,6.66
2023-01-13T03:37:30.787Z,6.61
2023-01-13T03:38:30.771Z,6.58
2023-01-13T03:39:30.752Z,6.54
2023-01-13T03:40:30.735Z,6.50
2023-01-13T03:41:30.735Z,6.46
2023-01-13T03:42:30.730Z,6.47
2023-01-13T03:43:30.711Z,6.43
2023-01-13T03:44:32.613Z,6.51
2023-01-13T03:45:30.693Z,6.63
2023-01-13T03:46:30.673Z,6.66
2023-01-13T03:47:30.689Z,6.69
2023-01-13T03:48:30.655Z,6.63
2023-01-13T03:49:30.650Z,6.62
2023-01-13T03:50:30.632Z,6.59
2023-01-13T03:51:30.634Z,6.58
2023-01-13T03:52:30.624Z,6.54
2023-01-13T03:53:30.612Z,6.58
2023-01-13T03:54:30.589Z,6.61
2023-01-13T03:55:30.595Z,6.56
2023-01-13T03:56:30.571Z,6.47
2023-01-13T03:57:30.585Z,6.40
2023-01-13T03:58:30.562Z,6.35
2023-01-13T03:59:30.543Z,6.33
2023-01-13T04:00:30.526Z,6.35
2023-01-13T04:01:30.616Z,6.41
2023-01-13T04:02:30.522Z,6.56
2023-01-13T04:03:30.555Z,6.62
2023-01-13T04:04:30.486Z,6.63
2023-01-13T04:05:30.480Z,6.65
2023-01-13T04:06:30.472Z,6.62
2023-01-13T04:07:30.486Z,6.59
2023-01-13T04:08:30.453Z,6.54
2023-01-13T04:09:30.445Z,6.53
2023-01-13T04:10:30.431Z,6.46
2023-01-13T04:11:30.422Z,6.41
2023-01-13T04:12:30.426Z,6.36
2023-01-13T04:13:30.399Z,6.29
2023-01-13T04:14:30.399Z,6.32
2023-01-13T04:15:30.456Z,6.41
2023-01-13T04:16:30.384Z,6.47
2023-01-13T04:17:30.367Z,6.43
2023-01-13T04:18:30.395Z,6.40
2023-01-13T04:19:30.346Z,6.46
2023-01-13T04:20:30.332Z,6.47
2023-01-13T04:21:30.339Z,6.50
2023-01-13T04:22:30.305Z,6.47
2023-01-13T04:23:30.320Z,6.46
2023-01-13T04:24:30.288Z,6.44
2023-01-13T04:25:30.285Z,6.53
2023-01-13T04:26:30.267Z,6.56
2023-01-13T04:27:30.287Z,6.53
2023-01-13T04:28:30.262Z,6.53
2023-01-13T04:29:30.240Z,6.54
2023-01-13T04:30:30.229Z,6.48
2023-01-13T04:31:30.226Z,6.46
2023-01-13T04:32:30.209Z,6.43
2023-01-13T04:33:30.229Z,6.40
2023-01-13T04:34:30.188Z,6.41
2023-01-13T04:35:30.181Z,6.44
2023-01-13T04:36:30.212Z,6.44
2023-01-13T04:37:30.168Z,6.35
2023-01-13T04:38:30.165Z,6.40
2023-01-13T04:39:30.147Z,6.38
2023-01-13T04:40:30.152Z,6.38
2023-01-13T04:41:30.127Z,6.28
2023-01-13T04:42:30.109Z,6.21
2023-01-13T04:43:30.115Z,6.19
2023-01-13T04:44:30.089Z,6.16
2023-01-13T04:45:30.110Z,6.16
2023-01-13T04:46:30.169Z,6.14
2023-01-13T04:47:30.065Z,6.16
2023-01-13T04:48:30.069Z,6.19
2023-01-13T04:49:30.044Z,6.22
2023-01-13T04:50:30.033Z,6.25
2023-01-13T04:51:30.026Z,6.29
2023-01-13T04:52:30.030Z,6.32
2023-01-13T04:53:30.024Z,6.35
2023-01-13T04:54:29.991Z,6.36
2023-01-13T04:55:29.983Z,6.38
2023-01-13T04:56:29.966Z,6.46
2023-01-13T04:57:29.980Z,6.50
2023-01-13T04:58:29.967Z,6.47
2023-01-13T04:59:29.944Z,6.44
2023-01-13T05:00:29.931Z,6.35
2023-01-13T05:01:30.079Z,6.32
2023-01-13T05:02:29.912Z,6.30
2023-01-13T05:03:29.921Z,6.29
2023-01-13T05:04:29.942Z,6.22
2023-01-13T05:05:29.901Z,6.18
2023-01-13T05:06:29.879Z,6.09
2023-01-13T05:07:29.864Z,6.04
2023-01-13T05:08:29.871Z,6.00
2023-01-13T05:09:29.852Z,5.96
2023-01-13T05:10:29.848Z,5.96
2023-01-13T05:11:29.830Z,5.93
2023-01-13T05:12:29.811Z,5.91
2023-01-13T05:13:29.820Z,5.93
2023-01-13T05:14:29.789Z,5.86
2023-01-13T05:15:29.782Z,5.81
2023-01-13T05:16:29.903Z,5.74
2023-01-13T05:17:29.764Z,5.68
2023-01-13T05:18:29.759Z,5.66
2023-01-13T05:19:29.743Z,5.63
2023-01-13T05:20:29.734Z,5.52
2023-01-13T05:21:29.735Z,5.43
2023-01-13T05:22:29.707Z,5.41
2023-01-13T05:23:29.717Z,5.48
2023-01-13T05:24:29.684Z,5.49
2023-01-13T05:25:29.685Z,5.46
2023-01-13T05:26:29.662Z,5.40
2023-01-13T05:27:29.667Z,5.34
2023-01-13T05:28:29.657Z,5.40
2023-01-13T05:29:29.644Z,5.40
2023-01-13T05:30:29.637Z,5.43
2023-01-13T05:31:29.664Z,5.38
2023-01-13T05:32:29.608Z,5.35
2023-01-13T05:33:29.611Z,5.35
2023-01-13T05:34:29.579Z,5.31
2023-01-13T05:35:29.580Z,5.31
2023-01-13T05:36:29.567Z,5.25
2023-01-13T05:37:29.560Z,5.25
2023-01-13T05:38:29.563Z,5.25
2023-01-13T05:39:29.535Z,5.30
2023-01-13T05:40:29.530Z,5.34
2023-01-13T05:41:29.513Z,5.35
2023-01-13T05:42:29.520Z,5.31
2023-01-13T05:43:29.526Z,5.25
2023-01-13T05:44:29.489Z,5.23
2023-01-13T05:45:29.473Z,5.20
2023-01-13T05:46:29.498Z,5.22
2023-01-13T05:47:29.461Z,5.25
2023-01-13T05:48:29.454Z,5.28
2023-01-13T05:49:29.437Z,5.37
2023-01-13T05:50:29.444Z,5.35
2023-01-13T05:51:29.414Z,5.34
2023-01-13T05:52:29.410Z,5.30
2023-01-13T05:53:29.435Z,5.28
2023-01-13T05:54:29.381Z,5.25
2023-01-13T05:55:29.369Z,5.28
2023-01-13T05:56:29.371Z,5.30
2023-01-13T05:57:29.349Z,5.28
2023-01-13T05:58:29.382Z,5.32
2023-01-13T05:59:29.334Z,5.38
2023-01-13T06:00:29.326Z,5.38
2023-01-13T06:01:29.373Z,5.38
2023-01-13T06:02:29.307Z,5.37
2023-01-13T06:03:29.309Z,5.35
2023-01-13T06:04:29.407Z,5.34
2023-01-13T06:05:29.267Z,5.31
2023-01-13T06:06:29.267Z,5.28
2023-01-13T06:07:29.260Z,5.28
2023-01-13T06:08:29.272Z,5.28
2023-01-13T06:09:29.229Z,5.28
2023-01-13T06:10:29.225Z,5.23
2023-01-13T06:11:29.211Z,5.17
2023-01-13T06:12:29.205Z,5.16
2023-01-13T06:13:29.228Z,5.17
2023-01-13T06:14:29.184Z,5.14
2023-01-13T06:15:29.177Z,5.23
2023-01-13T06:16:29.262Z,5.27
2023-01-13T06:17:29.152Z,5.27
2023-01-13T06:18:29.173Z,5.27
2023-01-13T06:19:29.146Z,5.23
2023-01-13T06:20:29.155Z,5.20
2023-01-13T06:21:29.106Z,5.16
2023-01-13T06:22:29.120Z,5.19
2023-01-13T06:23:29.106Z,5.17
2023-01-13T06:24:29.086Z,5.16
2023-01-13T06:25:29.072Z,5.22
2023-01-13T06:26:29.056Z,5.25
2023-01-13T06:27:29.039Z,5.28
2023-01-13T06:28:29.052Z,5.30
2023-01-13T06:29:29.045Z,5.32
2023-01-13T06:30:29.024Z,5.35
2023-01-13T06:31:29.052Z,5.35
2023-01-13T06:32:29.006Z,5.41
2023-01-13T06:33:28.995Z,5.49
2023-01-13T06:34:28.970Z,5.63
2023-01-13T06:35:28.954Z,5.66
2023-01-13T06:36:28.953Z,5.64
2023-01-13T06:37:28.938Z,5.60
2023-01-13T06:38:28.953Z,5.60
2023-01-13T06:39:28.925Z,5.57
2023-01-13T06:40:28.920Z,5.50
2023-01-13T06:41:28.899Z,5.43
2023-01-13T06:42:28.915Z,5.43
2023-01-13T06:43:28.892Z,5.43
2023-01-13T06:44:28.870Z,5.43
2023-01-13T06:45:28.801Z,5.46
2023-01-13T06:46:28.866Z,5.52
2023-01-13T06:47:28.783Z,5.53
2023-01-13T06:48:28.795Z,5.53
2023-01-13T06:49:28.765Z,5.55
2023-01-13T06:50:28.763Z,5.57
2023-01-13T06:51:28.751Z,5.56
2023-01-13T06:52:28.737Z,5.56
2023-01-13T06:53:28.750Z,5.50
2023-01-13T06:54:28.717Z,5.48
2023-01-13T06:55:28.714Z,5.48
2023-01-13T06:56:28.707Z,5.49
2023-01-13T06:57:28.684Z,5.49
2023-01-13T06:58:28.682Z,5.49
2023-01-13T06:59:28.698Z,5.50
2023-01-13T07:00:28.663Z,5.48
2023-01-13T07:01:28.778Z,5.46
2023-01-13T07:02:28.760Z,5.45
2023-01-13T07:03:28.655Z,5.49
2023-01-13T07:04:28.624Z,5.52
2023-01-13T07:05:28.595Z,5.52
2023-01-13T07:06:28.594Z,5.49
2023-01-13T07:07:28.601Z,5.48
2023-01-13T07:08:28.565Z,5.49
2023-01-13T07:09:28.568Z,5.50
2023-01-13T07:10:28.560Z,5.57
2023-01-13T07:11:28.534Z,5.66
2023-01-13T07:12:28.529Z,5.67
2023-01-13T07:13:28.528Z,5.70
2023-01-13T07:14:28.536Z,5.74
2023-01-13T07:15:28.486Z,5.81
2023-01-13T07:16:28.555Z,5.78
2023-01-13T07:17:28.467Z,5.81
2023-01-13T07:18:28.538Z,5.83
2023-01-13T07:19:28.461Z,5.83
2023-01-13T07:20:28.464Z,5.85
2023-01-13T07:21:28.427Z,5.86
2023-01-13T07:22:28.433Z,5.83
2023-01-13T07:23:28.417Z,5.83
2023-01-13T07:24:28.461Z,5.89
2023-01-13T07:25:28.390Z,5.91
2023-01-13T07:26:28.394Z,5.89
2023-01-13T07:27:28.366Z,5.88
2023-01-13T07:28:28.373Z,5.89
2023-01-13T07:29:28.357Z,5.89
2023-01-13T07:30:28.448Z,5.95
2023-01-13T07:31:28.360Z,5.96
2023-01-13T07:32:28.323Z,6.00
2023-01-13T07:33:28.310Z,6.03
2023-01-13T07:34:28.308Z,5.98
2023-01-13T07:35:28.278Z,5.92
2023-01-13T07:36:28.277Z,5.83
2023-01-13T07:37:28.260Z,5.86
2023-01-13T07:38:28.273Z,5.92
2023-01-13T07:39:28.267Z,5.92
2023-01-13T07:40:28.296Z,5.93
2023-01-13T07:41:28.233Z,5.89
2023-01-13T07:42:28.243Z,5.86
2023-01-13T07:43:28.206Z,5.89
2023-01-13T07:44:28.219Z,5.95
2023-01-13T07:45:28.229Z,5.95
2023-01-13T07:46:28.190Z,5.96
2023-01-13T07:47:28.159Z,6.04
2023-01-13T07:48:28.162Z,6.06
2023-01-13T07:49:28.153Z,6.03
2023-01-13T07:50:28.132Z,6.06
2023-01-13T07:51:28.113Z,6.06
2023-01-13T07:52:28.111Z,5.96
2023-01-13T07:53:28.094Z,5.92
2023-01-13T07:54:39.654Z,6.00
2023-01-13T07:55:28.091Z,6.04
2023-01-13T07:56:28.083Z,6.14
2023-01-13T07:57:28.060Z,6.16
2023-01-13T07:58:28.073Z,6.18
2023-01-13T07:59:28.053Z,6.16
2023-01-13T08:00:28.042Z,6.13
2023-01-13T08:01:28.234Z,6.07
2023-01-13T08:02:28.251Z,6.03
2023-01-13T08:03:28.005Z,6.00
2023-01-13T08:04:28.019Z,5.95
2023-01-13T08:05:27.975Z,5.93
2023-01-13T08:06:27.994Z,5.95
2023-01-13T08:07:27.947Z,6.03
2023-01-13T08:08:27.951Z,6.11
2023-01-13T08:09:27.947Z,6.18
2023-01-13T08:10:27.926Z,6.09
2023-01-13T08:11:27.920Z,6.13
2023-01-13T08:12:27.930Z,6.14
2023-01-13T08:13:27.910Z,6.28
2023-01-13T08:14:27.918Z,6.30
2023-01-13T08:15:27.875Z,6.30
2023-01-13T08:16:27.943Z,6.22
2023-01-13T08:17:27.846Z,6.16
2023-01-13T08:18:27.852Z,6.11
2023-01-13T08:19:27.847Z,6.11
2023-01-13T08:20:27.825Z,6.10
2023-01-13T08:21:27.810Z,6.11
2023-01-13T08:22:27.799Z,6.14
2023-01-13T08:23:27.783Z,6.25
2023-01-13T08:24:27.794Z,6.30
2023-01-13T08:25:27.760Z,6.38
2023-01-13T08:26:27.760Z,6.38
2023-01-13T08:27:27.747Z,6.41
2023-01-13T08:28:27.744Z,6.38
2023-01-13T08:29:27.742Z,6.33
2023-01-13T08:30:27.825Z,6.32
2023-01-13T08:31:27.704Z,6.32
2023-01-13T08:32:27.697Z,6.36
2023-01-13T08:33:27.689Z,6.48
2023-01-13T08:34:27.689Z,6.62
2023-01-13T08:35:27.677Z,6.68
2023-01-13T08:36:27.662Z,6.66
2023-01-13T08:37:27.640Z,6.66
2023-01-13T08:38:27.648Z,6.71
2023-01-13T08:39:27.647Z,6.79
2023-01-13T08:40:27.618Z,6.81
2023-01-13T08:41:27.598Z,6.77
2023-01-13T08:42:27.614Z,6.77
2023-01-13T08:43:27.582Z,6.76
2023-01-13T08:44:27.610Z,6.73
2023-01-13T08:45:27.557Z,6.71
2023-01-13T08:46:27.601Z,6.66
2023-01-13T08:47:27.543Z,6.68
2023-01-13T08:48:29.682Z,6.69
2023-01-13T08:49:27.547Z,6.69
2023-01-13T08:50:27.521Z,6.66
2023-01-13T08:51:27.504Z,6.68
2023-01-13T08:52:27.503Z,6.71
2023-01-13T08:53:27.498Z,6.79
2023-01-13T08:54:27.501Z,6.89
2023-01-13T08:55:27.480Z,6.91
2023-01-13T08:56:27.487Z,6.91
2023-01-13T08:57:27.544Z,6.94
2023-01-13T08:58:27.439Z,6.97
2023-01-13T08:59:27.446Z,6.97
2023-01-13T09:00:27.416Z,6.97
2023-01-13T09:01:27.507Z,6.99
2023-01-13T09:02:27.456Z,7.05
2023-01-13T09:03:27.385Z,7.08
2023-01-13T09:04:27.444Z,7.05
2023-01-13T09:05:27.357Z,7.01
2023-01-13T09:06:27.372Z,7.05
2023-01-13T09:07:27.337Z,7.08
2023-01-13T09:08:27.335Z,7.09
2023-01-13T09:09:27.340Z,7.13
2023-01-13T09:10:27.344Z,7.07
2023-01-13T09:11:27.306Z,7.22
2023-01-13T09:12:27.290Z,7.22
2023-01-13T09:13:27.292Z,7.16
2023-01-13T09:14:27.303Z,7.07
2023-01-13T09:15:27.294Z,7.09
2023-01-13T09:16:27.310Z,7.16
2023-01-13T09:17:27.230Z,7.19
2023-01-13T09:18:27.228Z,7.19
2023-01-13T09:19:27.228Z,7.20
2023-01-13T09:20:27.214Z,7.24
2023-01-13T09:21:27.196Z,7.20
2023-01-13T09:22:27.192Z,7.16
2023-01-13T09:23:27.183Z,7.17
2023-01-13T09:24:27.173Z,7.15
2023-01-13T09:25:27.171Z,7.09
2023-01-13T09:26:27.204Z,7.09
2023-01-13T09:27:27.179Z,7.04
2023-01-13T09:28:27.136Z,7.04
2023-01-13T09:29:27.116Z,7.08
2023-01-13T09:30:33.194Z,7.07
2023-01-13T09:31:27.121Z,7.02
2023-01-13T09:32:27.073Z,7.02
2023-01-13T09:33:27.063Z,6.99
2023-01-13T09:34:27.100Z,7.04
2023-01-13T09:35:27.034Z,7.05
2023-01-13T09:36:27.032Z,7.02
2023-01-13T09:37:27.020Z,7.01
2023-01-13T09:38:27.021Z,6.98
2023-01-13T09:39:27.005Z,6.98
2023-01-13T09:40:26.986Z,6.95
2023-01-13T09:41:26.977Z,6.99
2023-01-13T09:42:26.963Z,6.99
2023-01-13T09:43:26.963Z,7.04
2023-01-13T09:44:26.951Z,7.07
2023-01-13T09:45:26.947Z,7.04
2023-01-13T09:46:26.933Z,7.01
2023-01-13T09:47:26.908Z,7.04
2023-01-13T09:48:26.899Z,7.01
2023-01-13T09:49:26.886Z,7.01
2023-01-13T09:50:26.886Z,6.98
2023-01-13T09:51:27.101Z,7.02
2023-01-13T09:52:27.278Z,7.05
2023-01-13T09:53:26.856Z,7.15
2023-01-13T09:54:26.841Z,7.19
2023-01-13T09:55:26.847Z,7.22
2023-01-13T09:56:26.809Z,7.24
2023-01-13T09:57:26.855Z,7.24
2023-01-13T09:58:26.791Z,7.23
2023-01-13T09:59:26.948Z,7.24
2023-01-13T10:00:26.783Z,7.27
2023-01-13T10:01:26.849Z,7.23
2023-01-13T10:02:26.748Z,7.23
2023-01-13T10:03:26.806Z,7.32
2023-01-13T10:04:26.852Z,7.32
2023-01-13T10:05:26.735Z,7.31
2023-01-13T10:06:26.699Z,7.26
2023-01-13T10:07:26.703Z,7.20
2023-01-13T10:08:26.675Z,7.19
2023-01-13T10:09:26.669Z,7.19
2023-01-13T10:10:26.663Z,7.19
2023-01-13T10:11:26.655Z,7.22
2023-01-13T10:12:26.633Z,7.23
2023-01-13T10:13:26.633Z,7.22
2023-01-13T10:14:26.612Z,7.22
2023-01-13T10:15:26.626Z,7.22
2023-01-13T10:16:26.635Z,7.20
2023-01-13T10:17:26.594Z,7.23
2023-01-13T10:18:26.578Z,7.24
2023-01-13T10:19:26.580Z,7.22
2023-01-13T10:20:26.598Z,7.26
2023-01-13T10:21:26.549Z,7.32
2023-01-13T10:22:26.526Z,7.34
2023-01-13T10:23:26.533Z,7.34
2023-01-13T10:24:26.533Z,7.29
2023-01-13T10:25:26.525Z,7.29
2023-01-13T10:26:26.540Z,7.29
2023-01-13T10:27:26.485Z,7.24
2023-01-13T10:28:26.468Z,7.22
2023-01-13T10:29:26.472Z,7.27
2023-01-13T10:30:26.455Z,7.24
2023-01-13T10:31:26.517Z,7.19
2023-01-13T10:32:26.423Z,7.12
2023-01-13T10:33:27.958Z,7.13
2023-01-13T10:34:26.405Z,7.17
2023-01-13T10:35:26.410Z,7.16
2023-01-13T10:36:26.384Z,7.15
2023-01-13T10:37:26.375Z,7.17
2023-01-13T10:38:26.364Z,7.19
2023-01-13T10:39:26.364Z,7.20
2023-01-13T10:40:26.361Z,7.19
2023-01-13T10:41:26.338Z,7.20
2023-01-13T10:42:26.349Z,7.20
2023-01-13T10:43:26.320Z,7.22
2023-01-13T10:44:26.305Z,7.19
2023-01-13T10:45:26.316Z,7.26
2023-01-13T10:46:26.330Z,7.32
2023-01-13T10:47:26.309Z,7.31
2023-01-13T10:48:26.259Z,7.31
2023-01-13T10:49:26.262Z,7.31
2023-01-13T10:50:26.263Z,7.32
2023-01-13T10:51:26.230Z,7.35
2023-01-13T10:52:26.290Z,7.47
2023-01-13T10:53:26.224Z,7.56
2023-01-13T10:54:26.199Z,7.60
2023-01-13T10:55:26.203Z,7.53
2023-01-13T10:56:26.199Z,7.45
2023-01-13T10:57:26.177Z,7.37
2023-01-13T10:58:26.163Z,7.35
2023-01-13T10:59:26.150Z,7.38
2023-01-13T11:00:26.151Z,7.38
2023-01-13T11:01:26.406Z,7.42
2023-01-13T11:02:27.018Z,7.52
2023-01-13T11:03:26.110Z,7.55
2023-01-13T11:04:26.172Z,7.56
2023-01-13T11:05:26.122Z,7.56
2023-01-13T11:06:26.070Z,7.53
2023-01-13T11:07:28.304Z,7.50
2023-01-13T11:08:26.054Z,7.49
2023-01-13T11:09:26.061Z,7.47
2023-01-13T11:10:26.052Z,7.49
2023-01-13T11:11:26.056Z,7.45
2023-01-13T11:12:26.022Z,7.45
2023-01-13T11:13:26.006Z,7.42
2023-01-13T11:14:25.990Z,7.40
2023-01-13T11:15:26.008Z,7.38
2023-01-13T11:16:26.041Z,7.35
2023-01-13T11:17:25.966Z,7.35
2023-01-13T11:18:25.966Z,7.38
2023-01-13T11:19:25.945Z,7.34
2023-01-13T11:20:25.945Z,7.35
2023-01-13T11:21:25.922Z,7.37
2023-01-13T11:22:25.908Z,7.35
2023-01-13T11:23:25.902Z,7.34
2023-01-13T11:24:25.890Z,7.35
2023-01-13T11:25:25.916Z,7.37
2023-01-13T11:26:25.870Z,7.37
2023-01-13T11:27:25.859Z,7.34
2023-01-13T11:28:25.857Z,7.32
2023-01-13T11:29:25.837Z,7.29
2023-01-13T11:30:25.841Z,7.32
2023-01-13T11:31:25.888Z,7.29
2023-01-13T11:32:25.806Z,7.32
2023-01-13T11:33:25.795Z,7.37
2023-01-13T11:34:25.784Z,7.41
2023-01-13T11:35:25.799Z,7.37
2023-01-13T11:36:25.823Z,7.35
2023-01-13T11:37:25.755Z,7.34
2023-01-13T11:38:25.736Z,7.40
2023-01-13T11:39:25.736Z,7.44
2023-01-13T11:40:25.731Z,7.50
2023-01-13T11:41:25.708Z,7.56
2023-01-13T11:42:25.706Z,7.58
2023-01-13T11:43:25.688Z,7.66
2023-01-13T11:44:25.689Z,7.71
2023-01-13T11:45:25.684Z,7.72
2023-01-13T11:46:25.701Z,7.63
2023-01-13T11:47:25.669Z,7.53
2023-01-13T11:48:25.636Z,7.45
2023-01-13T11:49:25.627Z,7.37
2023-01-13T11:50:25.626Z,7.32
2023-01-13T11:51:25.607Z,7.27
2023-01-13T11:52:25.591Z,7.20
2023-01-13T11:53:25.589Z,7.24
2023-01-13T11:54:25.578Z,7.19
2023-01-13T11:55:25.599Z,7.20
2023-01-13T11:56:25.548Z,7.22
2023-01-13T11:57:25.544Z,7.23
2023-01-13T11:58:25.539Z,7.27
2023-01-13T11:59:25.536Z,7.27
2023-01-13T12:00:25.521Z,7.29
2023-01-13T12:01:25.568Z,7.32
2023-01-13T12:02:25.532Z,7.37
2023-01-13T12:03:25.540Z,7.45
2023-01-13T12:04:25.470Z,7.53
2023-01-13T12:05:25.484Z,7.59
2023-01-13T12:06:25.466Z,7.66
2023-01-13T12:07:25.432Z,7.62
2023-01-13T12:08:25.428Z,7.71
2023-01-13T12:09:25.424Z,7.72
2023-01-13T12:10:25.419Z,7.63
2023-01-13T12:11:25.412Z,7.62
2023-01-13T12:12:25.409Z,7.66
2023-01-13T12:13:25.380Z,7.71
2023-01-13T12:14:25.382Z,7.71
2023-01-13T12:15:25.379Z,7.77
2023-01-13T12:16:25.357Z,7.77
2023-01-13T12:17:25.333Z,7.79
2023-01-13T12:18:25.325Z,7.78
2023-01-13T12:19:25.307Z,7.75
2023-01-13T12:20:25.314Z,7.72
2023-01-13T12:21:25.293Z,7.75
2023-01-13T12:22:25.291Z,7.75
2023-01-13T12:23:25.271Z,7.67
2023-01-13T12:24:25.268Z,7.58
2023-01-13T12:25:25.278Z,7.55
2023-01-13T12:26:25.255Z,7.52
2023-01-13T12:27:25.232Z,7.52
2023-01-13T12:28:25.258Z,7.53
2023-01-13T12:29:25.207Z,7.58
2023-01-13T12:30:25.232Z,7.56
2023-01-13T12:31:25.235Z,7.56
2023-01-13T12:32:25.178Z,7.60
2023-01-13T12:33:25.177Z,7.60
2023-01-13T12:34:25.162Z,7.62
2023-01-13T12:35:25.161Z,7.60
2023-01-13T12:36:25.141Z,7.58
2023-01-13T12:37:25.128Z,7.52
2023-01-13T12:38:25.112Z,7.42
2023-01-13T12:39:25.112Z,7.38
2023-01-13T12:40:25.104Z,7.37
2023-01-13T12:41:25.093Z,7.34
2023-01-13T12:42:25.090Z,7.32
2023-01-13T12:43:25.067Z,7.32
2023-01-13T12:44:25.058Z,7.34
2023-01-13T12:45:25.090Z,7.32
2023-01-13T12:46:25.027Z,7.31
2023-01-13T12:47:25.022Z,7.27
2023-01-13T12:48:25.007Z,7.24
2023-01-13T12:49:25.022Z,7.20
2023-01-13T12:50:25.000Z,7.07
2023-01-13T12:51:24.982Z,6.99
2023-01-13T12:52:24.968Z,6.91
2023-01-13T12:53:24.968Z,6.86
2023-01-13T12:54:24.945Z,6.80
2023-01-13T12:55:24.954Z,6.79
2023-01-13T12:56:24.931Z,6.84
2023-01-13T12:57:24.913Z,6.94
2023-01-13T12:58:24.911Z,6.91
2023-01-13T12:59:24.908Z,6.95
2023-01-13T13:00:24.900Z,6.97
2023-01-13T13:01:24.985Z,7.05
2023-01-13T13:02:24.897Z,7.08
2023-01-13T13:03:24.858Z,7.15
2023-01-13T13:04:24.848Z,7.23
2023-01-13T13:05:24.850Z,7.29
2023-01-13T13:06:24.843Z,7.29
2023-01-13T13:07:24.811Z,7.27
2023-01-13T13:08:24.801Z,7.17
2023-01-13T13:09:24.789Z,7.19
2023-01-13T13:10:24.800Z,7.23
2023-01-13T13:11:24.785Z,7.22
2023-01-13T13:12:24.756Z,7.22
2023-01-13T13:13:24.751Z,7.23
2023-01-13T13:14:24.737Z,7.23
2023-01-13T13:15:24.732Z,7.26
2023-01-13T13:16:24.795Z,7.24
2023-01-13T13:17:24.713Z,7.22
2023-01-13T13:18:24.701Z,7.20